• Join FlightAware (Why Join?)
  • Login
  • US Flag 
11:50AM EST


 

Airport Tracker/Info


-or-


 

Live Flight TrackerFlight Track Log ✈ EJA929 ✈ 14-Jun-2013 ✈ KBFI - KOAK

Flight Track Log - Related Links

Times and Time Zones

All times are in EDT time to prevent confusion due to time zone crossing. See the EJA929 flight status page for this flight to view local times or setup timezone preferences in your user account.

Time Position Orientation Groundspeed Altitude Reporting Facility
EDT Latitude Longitude Course Direction KTS MPH feet Rate Location/Type
09:48AM 47.5117 -122.2878 146° Southeast 175 201 1,300  Level Seattle Center
09:48AM 47.4908 -122.2667 146° Southeast 196 226 2,500 2,460 Climbing Seattle Center
09:49AM 47.4442 -122.2233 148° Southeast 211 243 4,800 1,440 Climbing Seattle Center
09:50AM 47.3892 -122.1819 153° Southeast 214 246 5,500 1,320 Climbing Seattle Center
09:51AM 47.3275 -122.1931 187° South 274 315 7,600 2,640 Climbing Seattle Center
09:52AM 47.3128 -122.3261 261° West 293 337 11,000 2,700 Climbing Seattle Center
09:53AM 47.3206 -122.4547 275° West 316 364 13,500 2,160 Climbing Seattle Center
09:54AM 47.3325 -122.5933 277° West 340 391 15,500 1,920 Climbing Seattle Center
09:55AM 47.3222 -122.7419 264° West 370 426 17,400 1,680 Climbing Seattle Center
09:56AM 47.2894 -122.8819 251° West 376 433 19,000 1,740 Climbing Seattle Center
09:57AM 47.2511 -123.0247 248° West 378 435 21,000 1,860 Climbing Seattle Center
09:58AM 47.2133 -123.1675 249° West 377 434 22,900 1,680 Climbing Seattle Center
09:59AM 47.1719 -123.3158 248° West 393 452 24,500 1,560 Climbing Seattle Center
10:00AM 47.0747 -123.4094 213° Southwest 427 491 26,100 1,680 Climbing Seattle Center
10:01AM 46.9217 -123.4044 179° South 462 532 28,000 1,620 Climbing Seattle Center
10:02AM 46.7897 -123.3961 178° South 478 550 29,500 1,440 Climbing Seattle Center
10:03AM 46.6525 -123.3875 178° South 497 572 31,000 1,500 Climbing Seattle Center
10:04AM 46.5108 -123.3786 178° South 515 593 32,600 1,500 Climbing Seattle Center
10:06AM 46.3706 -123.3700 178° South 531 611 34,100 1,440 Climbing Seattle Center
10:07AM 46.2242 -123.3600 177° South 530 610 35,600 1,380 Climbing Seattle Center
10:08AM 46.0756 -123.3519 178° South 535 616 36,900 660 Climbing Seattle Center
10:09AM 45.9286 -123.3408 177° South 531 611 37,000  Climbing Seattle Center
10:10AM 45.7781 -123.3306 177° South 538 619 37,000  Level Seattle Center
10:11AM 45.6297 -123.3211 177° South 536 617 37,000  Level Seattle Center
10:12AM 45.4794 -123.3108 177° South 539 620 37,000  Level Seattle Center
10:13AM 45.3314 -123.2994 177° South 533 613 37,000  Level Seattle Center
10:14AM 45.1825 -123.2894 177° South 533 613 37,000  Level Seattle Center
10:15AM 45.0328 -123.2814 178° South 531 611 37,000  Level Seattle Center
10:16AM 44.8844 -123.2706 177° South 524 603 37,000  Level Seattle Center
10:17AM 44.7361 -123.2603 177° South 526 605 37,000  Level Seattle Center
10:18AM 44.5889 -123.2519 178° South 527 606 37,000  Level Seattle Center
10:19AM 44.4128 -123.2403 177° South 527 606 37,000  Level Seattle Center
10:20AM 44.2664 -123.2303 177° South 527 606 37,000  Level Seattle Center
10:21AM 44.1208 -123.2222 178° South 527 606 37,000  Level Seattle Center
10:22AM 43.9858 -123.2061 175° South 525 604 37,000  Level Seattle Center
10:23AM 43.8394 -123.1875 175° South 526 605 37,000  Level Seattle Center
10:24AM 43.6931 -123.1703 175° South 527 606 37,000  Level Seattle Center
10:25AM 43.5475 -123.1533 175° South 526 605 37,000  Level Seattle Center
10:26AM 43.4006 -123.1350 175° South 529 609 37,000  Level Seattle Center
10:27AM 43.2542 -123.1175 175° South 528 608 37,000  Level Seattle Center
10:28AM 43.0789 -123.0961 175° South 526 605 37,000  Level Seattle Center
10:29AM 42.9331 -123.0781 175° South 526 605 37,000  Level Seattle Center
10:30AM 42.7872 -123.0603 175° South 525 604 37,000  Level Seattle Center
10:31AM 42.6631 -123.0458 175° South 523 602 37,000  Level Seattle Center
10:32AM 42.5175 -123.0283 175° South 524 603 37,000  Level Seattle Center
10:33AM 42.3533 -123.0092 175° South 517 595 37,000  Level Seattle Center
10:34AM 42.2094 -122.9931 175° South 516 594 37,000  Level Seattle Center
10:35AM 42.0589 -122.9767 175° South 516 594 37,000  Level Seattle Center
10:36AM 41.9103 -122.9594 175° South 520 598 37,000  Level Seattle Center
10:37AM 41.7667 -122.9447 176° South 521 600 37,000  Level Seattle Center
10:38AM 41.6225 -122.9269 175° South 522 601 37,000  Level Seattle Center
10:39AM 41.4786 -122.9119 176° South 519 597 37,000  Level Seattle Center
10:40AM 41.3336 -122.8964 175° South 522 601 37,000  Level Seattle Center
10:41AM 41.1897 -122.8797 175° South 519 597 37,000  Level Seattle Center
10:42AM 41.0483 -122.8639 175° South 511 588 37,000  Level Seattle Center
10:42AM 40.9842 -122.8575 176° South 505 581 37,000  Level Oakland Center
10:43AM 40.8439 -122.8422 175° South 507 583 37,000  Level Oakland Center
10:44AM 40.7053 -122.8264 175° South 504 580 37,000  Level Oakland Center
10:45AM 40.5672 -122.8108 175° South 502 578 37,000  Level Oakland Center
10:46AM 40.4319 -122.7964 175° South 494 568 37,000  Level Oakland Center
10:47AM 40.2983 -122.7819 175° South 488 562 37,000  Level Oakland Center
10:49AM 40.1644 -122.7667 175° South 489 563 37,000 -60 Level Oakland Center
10:50AM 40.0025 -122.7500 175° South 491 565 36,900 -840 Descending Oakland Center
10:51AM 39.8711 -122.7353 175° South 480 552 35,300 -1,860 Descending Oakland Center
10:52AM 39.7411 -122.7211 175° South 474 545 33,100 -2,220 Descending Oakland Center
10:53AM 39.6092 -122.7067 175° South 480 552 30,900 -2,100 Descending Oakland Center
10:54AM 39.4761 -122.6917 175° South 481 554 28,900 -2,040 Descending Oakland Center
10:55AM 39.3411 -122.6783 176° South 487 560 26,800 -2,220 Descending Oakland Center
10:56AM 39.1983 -122.6628 175° South 487 560 24,500 -2,100 Descending Oakland Center
10:57AM 39.0667 -122.6483 175° South 479 551 22,500 -2,040 Descending Oakland Center
10:58AM 38.9328 -122.6339 175° South 463 533 20,400 -2,040 Descending Oakland Center
10:59AM 38.8092 -122.6203 175° South 449 517 18,400 -1,920 Descending Oakland Center
11:00AM 38.6883 -122.6078 175° South 437 503 16,600 -1,680 Descending Oakland Center
11:01AM 38.5700 -122.5950 175° South 428 493 15,000 -1,620 Descending Oakland Center
11:02AM 38.4517 -122.5839 176° South 427 491 13,400 -1,740 Descending Oakland Center
11:03AM 38.3422 -122.5728 175° South 395 455 11,500 -1,860 Descending Oakland Center
11:04AM 38.2289 -122.5606 175° South 340 391 9,600 -1,860 Descending Oakland Center
11:05AM 38.1481 -122.5525 176° South 301 346 7,800 -1,380 Descending Oakland Center
11:06AM 38.0675 -122.5419 174° South 291 335 6,900 -960 Descending Oakland Center
11:07AM 38.0003 -122.4850 146° Southeast 291 335 5,900 -840 Descending Oakland Center
11:08AM 37.9506 -122.4147 132° Southeast 268 308 5,300 -540 Descending Oakland Center
11:09AM 37.9106 -122.3486 127° Southeast 241 277 4,900 -240 Descending Oakland Center
11:10AM 37.8700 -122.2817 127° Southeast 238 274 4,900 60 Level Oakland Center
11:10AM 37.8500 -122.2500 129° Southeast 240 276 5,000 -120 Climbing Northern Cal TRACON
11:11AM 37.8167 -122.1833 122° Southeast 242 278 4,800 -540 Descending Northern Cal TRACON
11:12AM 37.7833 -122.1333 130° Southeast 221 254 4,000 -960 Descending Northern Cal TRACON
11:13AM 37.7333 -122.1000 152° Southeast 196 226 2,900 -1,260 Descending Northern Cal TRACON
11:14AM 37.7167 -122.1500 247° West 164 189 1,500 -1,440 Descending Northern Cal TRACON
11:15AM 37.7167 -122.2000 270° West 140 161 200 -1,320 Descending Northern Cal TRACON